createdAt,value
2019-05-10T00:00:01.944Z,97826.00
2019-05-10T00:00:10.852Z,97826.00
2019-05-10T00:00:16.057Z,97827.00
2019-05-10T00:00:19.810Z,97827.00
2019-05-10T00:00:23.598Z,97827.00
2019-05-10T00:00:38.544Z,97828.00
2019-05-10T00:00:46.216Z,97823.00
2019-05-10T00:01:00.381Z,97823.00
2019-05-10T00:01:04.129Z,97827.00
2019-05-10T00:01:12.686Z,97831.00
2019-05-10T00:01:27.526Z,97827.00
2019-05-10T00:01:35.023Z,97830.00
2019-05-10T00:02:07.178Z,97829.00
2019-05-10T00:02:14.299Z,97829.00
2019-05-10T00:02:18.098Z,97828.00
2019-05-10T00:02:24.273Z,97828.00
2019-05-10T00:02:28.078Z,97830.00
2019-05-10T00:02:35.059Z,97830.00
2019-05-10T00:02:45.516Z,97828.00
2019-05-10T00:02:55.329Z,97830.00
2019-05-10T00:03:18.652Z,97829.00
2019-05-10T00:03:22.380Z,97826.00
2019-05-10T00:03:29.502Z,97827.00
2019-05-10T00:03:35.523Z,97827.00
2019-05-10T00:03:46.391Z,97827.00
2019-05-10T00:03:53.817Z,97829.00
2019-05-10T00:04:06.429Z,97828.00
2019-05-10T00:04:13.037Z,97834.00
2019-05-10T00:04:24.851Z,97830.00
2019-05-10T00:04:33.770Z,97828.00
2019-05-10T00:04:44.010Z,97830.00
2019-05-10T00:04:56.294Z,97830.00
2019-05-10T00:05:03.928Z,97827.00
2019-05-10T00:05:46.647Z,97833.00
2019-05-10T00:06:10.071Z,97831.00
2019-05-10T00:06:19.039Z,97827.00
2019-05-10T00:06:23.378Z,97830.00
2019-05-10T00:06:27.174Z,97828.00
2019-05-10T00:06:30.876Z,97829.00
2019-05-10T00:07:07.419Z,97832.00
2019-05-10T00:07:11.807Z,97826.00
2019-05-10T00:07:15.505Z,97831.00
2019-05-10T00:07:19.838Z,97830.00
2019-05-10T00:07:33.208Z,97829.00
2019-05-10T00:07:39.546Z,97829.00
2019-05-10T00:07:43.320Z,97837.00
2019-05-10T00:07:52.269Z,97828.00
2019-05-10T00:07:55.973Z,97831.00
2019-05-10T00:08:20.107Z,97829.00
2019-05-10T00:08:25.290Z,97829.00
2019-05-10T00:08:30.562Z,97829.00
2019-05-10T00:08:34.370Z,97827.00
2019-05-10T00:09:10.105Z,97830.00
2019-05-10T00:09:41.528Z,97831.00
2019-05-10T00:09:45.940Z,97830.00
2019-05-10T00:10:29.122Z,97839.00
2019-05-10T00:10:34.333Z,97835.00
2019-05-10T00:10:38.073Z,97838.00
2019-05-10T00:11:04.866Z,97838.00
2019-05-10T00:11:08.732Z,97840.00
2019-05-10T00:11:14.194Z,97835.00
2019-05-10T00:11:17.862Z,97833.00
2019-05-10T00:11:21.514Z,97834.00
2019-05-10T00:11:25.371Z,97832.00
2019-05-10T00:12:12.146Z,97831.00
2019-05-10T00:12:15.975Z,97835.00
2019-05-10T00:12:36.170Z,97835.00
2019-05-10T00:12:43.174Z,97832.00
2019-05-10T00:12:47.141Z,97832.00
2019-05-10T00:12:54.020Z,97831.00
2019-05-10T00:13:02.931Z,97829.00
2019-05-10T00:13:13.860Z,97832.00
2019-05-10T00:13:17.657Z,97838.00
2019-05-10T00:13:21.549Z,97839.00
2019-05-10T00:13:25.693Z,97835.00
2019-05-10T00:14:03.825Z,97833.00
2019-05-10T00:14:07.648Z,97833.00
2019-05-10T00:14:16.570Z,97837.00
2019-05-10T00:14:22.657Z,97831.00
2019-05-10T00:14:39.497Z,97833.00
2019-05-10T00:14:43.246Z,97831.00
2019-05-10T00:14:53.453Z,97833.00
2019-05-10T00:14:57.186Z,97831.00
2019-05-10T00:15:01.107Z,97830.00
2019-05-10T00:15:04.794Z,97831.00
2019-05-10T00:15:13.734Z,97835.00
2019-05-10T00:15:50.278Z,97833.00
2019-05-10T00:15:53.956Z,97829.00
2019-05-10T00:16:00.904Z,97834.00
2019-05-10T00:16:04.635Z,97829.00
2019-05-10T00:16:28.068Z,97831.00
2019-05-10T00:16:31.847Z,97833.00
2019-05-10T00:16:37.164Z,97834.00
2019-05-10T00:16:41.084Z,97831.00
2019-05-10T00:17:12.969Z,97832.00
2019-05-10T00:17:23.316Z,97831.00
2019-05-10T00:17:26.960Z,97834.00
2019-05-10T00:17:59.581Z,97830.00
2019-05-10T00:18:08.495Z,97832.00
2019-05-10T00:18:42.084Z,0.00
2019-05-10T00:18:50.997Z,0.00
2019-05-10T00:18:54.789Z,0.00
2019-05-10T00:18:58.590Z,0.00
2019-05-10T00:19:02.542Z,0.00
2019-05-10T00:19:06.276Z,0.00
2019-05-10T00:19:13.112Z,0.00
2019-05-10T00:19:22.024Z,0.00
2019-05-10T00:19:27.348Z,0.00
2019-05-10T00:19:36.257Z,0.00
2019-05-10T00:19:39.960Z,0.00
2019-05-10T00:19:44.561Z,0.00
2019-05-10T00:21:09.286Z,0.00
2019-05-10T00:21:21.492Z,0.00
2019-05-10T00:21:30.434Z,0.00
2019-05-10T00:21:34.299Z,0.00
2019-05-10T00:21:43.211Z,0.00
2019-05-10T00:21:46.937Z,0.00
2019-05-10T00:21:55.846Z,0.00
2019-05-10T00:21:59.533Z,0.00
2019-05-10T00:22:08.458Z,0.00
2019-05-10T00:23:21.037Z,0.00
2019-05-10T00:23:28.014Z,0.00
2019-05-10T00:23:34.727Z,0.00
2019-05-10T00:23:40.968Z,0.00
2019-05-10T00:23:44.832Z,0.00
2019-05-10T00:23:58.425Z,0.00
2019-05-10T00:24:02.167Z,0.00
2019-05-10T00:24:05.857Z,0.00
2019-05-10T00:24:12.125Z,0.00
2019-05-10T00:24:18.359Z,0.00
2019-05-10T00:24:25.585Z,0.00
2019-05-10T00:24:30.772Z,0.00
2019-05-10T00:24:34.666Z,0.00
2019-05-10T00:24:41.553Z,0.00
2019-05-10T00:25:24.797Z,0.00
2019-05-10T00:25:29.950Z,0.00
2019-05-10T00:25:33.651Z,0.00
2019-05-10T00:25:37.377Z,0.00
2019-05-10T00:25:41.091Z,0.00
2019-05-10T00:25:44.789Z,0.00
2019-05-10T00:25:52.300Z,0.00
2019-05-10T00:26:27.447Z,0.00
2019-05-10T00:26:39.637Z,0.00
2019-05-10T00:26:46.770Z,0.00
2019-05-10T00:26:50.503Z,0.00
2019-05-10T00:26:54.225Z,0.00
2019-05-10T00:26:59.478Z,0.00
2019-05-10T00:27:03.354Z,0.00
2019-05-10T00:27:11.624Z,0.00
2019-05-10T00:27:26.074Z,0.00
2019-05-10T00:27:33.727Z,0.00
2019-05-10T00:27:42.710Z,0.00
2019-05-10T00:28:01.450Z,0.00
2019-05-10T00:28:13.645Z,0.00
2019-05-10T00:28:17.552Z,0.00
2019-05-10T00:28:21.291Z,0.00
2019-05-10T00:28:57.406Z,0.00
2019-05-10T00:29:06.329Z,0.00
2019-05-10T00:29:10.732Z,0.00
2019-05-10T00:29:14.415Z,0.00
2019-05-10T00:29:20.737Z,0.00
2019-05-10T00:29:25.485Z,0.00
2019-05-10T00:29:34.394Z,0.00
2019-05-10T00:29:47.004Z,0.00
2019-05-10T00:30:55.865Z,0.00
2019-05-10T00:30:59.599Z,0.00
2019-05-10T00:31:06.550Z,0.00
2019-05-10T00:31:10.233Z,0.00
2019-05-10T00:31:19.172Z,0.00
2019-05-10T00:32:32.906Z,0.00
2019-05-10T00:33:12.679Z,0.00
2019-05-10T00:33:16.390Z,0.00
2019-05-10T00:33:25.298Z,0.00
2019-05-10T00:33:29.132Z,0.00
2019-05-10T00:33:42.651Z,0.00
2019-05-10T00:33:52.947Z,0.00
2019-05-10T00:33:56.793Z,0.00
2019-05-10T00:34:00.498Z,0.00
2019-05-10T00:34:09.393Z,0.00
2019-05-10T00:34:13.329Z,0.00
2019-05-10T00:34:20.198Z,0.00
2019-05-10T00:34:23.893Z,0.00
2019-05-10T00:34:27.616Z,0.00
2019-05-10T00:34:37.504Z,0.00
2019-05-10T00:34:45.567Z,0.00
2019-05-10T00:34:53.145Z,0.00
2019-05-10T00:36:16.002Z,0.00
2019-05-10T00:36:24.925Z,0.00
2019-05-10T00:36:28.625Z,0.00
2019-05-10T00:36:33.795Z,0.00
2019-05-10T00:36:37.656Z,0.00
2019-05-10T00:36:44.718Z,0.00
2019-05-10T00:36:58.261Z,0.00
2019-05-10T00:37:05.259Z,0.00
2019-05-10T00:37:09.191Z,0.00
2019-05-10T00:37:29.226Z,0.00
2019-05-10T00:37:36.278Z,0.00
2019-05-10T00:37:41.523Z,0.00
2019-05-10T00:37:51.530Z,0.00
2019-05-10T00:37:59.934Z,0.00
2019-05-10T00:38:03.624Z,0.00
2019-05-10T00:38:07.301Z,0.00
2019-05-10T00:38:13.704Z,0.00
2019-05-10T00:38:40.493Z,0.00
2019-05-10T00:38:50.493Z,0.00
2019-05-10T00:38:54.185Z,0.00
2019-05-10T00:39:03.105Z,0.00
2019-05-10T00:39:09.978Z,0.00
2019-05-10T00:39:13.747Z,0.00
2019-05-10T00:39:19.529Z,0.00
2019-05-10T00:39:47.320Z,0.00
2019-05-10T00:39:51.137Z,0.00
2019-05-10T00:39:54.839Z,0.00
2019-05-10T00:40:03.760Z,0.00
2019-05-10T00:40:11.580Z,0.00
2019-05-10T00:40:25.629Z,0.00
2019-05-10T00:40:29.301Z,0.00
2019-05-10T00:41:17.624Z,0.00
2019-05-10T00:41:21.361Z,0.00
2019-05-10T00:41:26.583Z,0.00
2019-05-10T00:41:30.307Z,0.00
2019-05-10T00:42:21.470Z,0.00
2019-05-10T00:42:30.381Z,0.00
2019-05-10T00:42:39.290Z,0.00
2019-05-10T00:42:46.163Z,0.00
2019-05-10T00:42:49.919Z,0.00
2019-05-10T00:42:53.809Z,0.00
2019-05-10T00:42:57.624Z,0.00
2019-05-10T00:43:04.475Z,0.00
2019-05-10T00:43:09.861Z,0.00
2019-05-10T00:43:13.764Z,0.00
2019-05-10T00:43:18.095Z,0.00
2019-05-10T00:43:21.800Z,0.00
2019-05-10T00:44:38.071Z,0.00
2019-05-10T00:44:41.756Z,0.00
2019-05-10T00:44:47.082Z,0.00
2019-05-10T00:44:51.491Z,0.00
2019-05-10T00:44:55.222Z,0.00
2019-05-10T00:44:58.937Z,0.00
2019-05-10T00:45:04.185Z,0.00
2019-05-10T00:45:07.871Z,0.00
2019-05-10T00:45:16.778Z,0.00
2019-05-10T00:45:20.496Z,0.00
2019-05-10T00:46:25.140Z,0.00
2019-05-10T00:46:30.380Z,0.00
2019-05-10T00:46:34.131Z,0.00
2019-05-10T00:47:02.350Z,0.00
2019-05-10T00:47:06.046Z,0.00
2019-05-10T00:47:09.924Z,0.00
2019-05-10T00:47:13.672Z,0.00
2019-05-10T00:47:17.606Z,0.00
2019-05-10T00:47:21.442Z,0.00
2019-05-10T00:47:44.871Z,0.00
2019-05-10T00:47:50.092Z,0.00
2019-05-10T00:47:54.629Z,0.00
2019-05-10T00:48:01.706Z,0.00
2019-05-10T00:48:05.470Z,0.00
2019-05-10T00:49:11.444Z,0.00
2019-05-10T00:49:20.462Z,0.00
2019-05-10T00:49:24.132Z,0.00
2019-05-10T00:49:27.822Z,0.00
2019-05-10T00:49:33.083Z,0.00
2019-05-10T00:49:36.797Z,0.00
2019-05-10T00:49:42.412Z,0.00
2019-05-10T00:49:46.913Z,0.00
2019-05-10T00:49:55.821Z,0.00
2019-05-10T00:49:59.688Z,0.00
2019-05-10T00:50:04.926Z,0.00
2019-05-10T00:50:13.950Z,0.00
2019-05-10T00:50:27.609Z,0.00
2019-05-10T00:50:52.598Z,0.00
2019-05-10T00:51:07.712Z,0.00
2019-05-10T00:51:12.905Z,0.00
2019-05-10T00:51:16.647Z,0.00
2019-05-10T00:52:28.701Z,0.00
2019-05-10T00:52:32.487Z,0.00
2019-05-10T00:52:39.162Z,0.00
2019-05-10T00:52:43.047Z,0.00
2019-05-10T00:52:47.544Z,0.00
2019-05-10T00:52:52.674Z,0.00
2019-05-10T00:53:01.630Z,0.00
2019-05-10T00:53:05.616Z,0.00
2019-05-10T00:53:20.829Z,0.00
2019-05-10T00:53:24.541Z,0.00
2019-05-10T00:53:34.865Z,0.00
2019-05-10T00:53:43.771Z,0.00
2019-05-10T00:53:49.290Z,0.00
2019-05-10T00:53:54.623Z,0.00
2019-05-10T00:54:04.728Z,0.00
2019-05-10T00:54:13.661Z,0.00
2019-05-10T00:54:24.700Z,0.00
2019-05-10T00:54:33.642Z,0.00
2019-05-10T00:54:40.613Z,0.00
2019-05-10T00:54:52.095Z,0.00
2019-05-10T00:56:13.121Z,0.00
2019-05-10T00:56:16.903Z,0.00
2019-05-10T00:56:27.164Z,0.00
2019-05-10T00:56:34.028Z,0.00
2019-05-10T00:56:37.768Z,0.00
2019-05-10T00:56:44.640Z,0.00
2019-05-10T00:57:46.792Z,0.00
2019-05-10T00:58:44.892Z,0.00
2019-05-10T00:58:48.695Z,0.00
2019-05-10T00:58:54.657Z,0.00
2019-05-10T00:59:03.585Z,0.00
2019-05-10T00:59:12.499Z,0.00
2019-05-10T01:00:33.227Z,0.00
2019-05-10T01:00:37.255Z,0.00
2019-05-10T01:00:41.126Z,0.00
2019-05-10T01:00:50.040Z,0.00
2019-05-10T01:00:54.012Z,0.00
2019-05-10T01:00:57.810Z,0.00
2019-05-10T01:01:04.381Z,0.00
2019-05-10T01:01:11.526Z,0.00
2019-05-10T01:01:18.897Z,0.00
2019-05-10T01:01:22.604Z,0.00
2019-05-10T01:01:26.729Z,0.00
2019-05-10T01:02:46.224Z,0.00
2019-05-10T01:03:19.815Z,0.00
2019-05-10T01:03:53.565Z,0.00
2019-05-10T01:03:57.387Z,0.00
2019-05-10T01:04:07.601Z,0.00
2019-05-10T01:04:13.321Z,0.00
2019-05-10T01:04:22.237Z,0.00
2019-05-10T01:04:31.144Z,0.00
2019-05-10T01:04:40.028Z,0.00
2019-05-10T01:04:44.047Z,0.00
2019-05-10T01:04:48.395Z,0.00
2019-05-10T01:04:53.775Z,0.00
2019-05-10T01:04:59.094Z,0.00
2019-05-10T01:05:02.814Z,0.00
2019-05-10T01:06:16.006Z,0.00
2019-05-10T01:06:22.786Z,0.00
2019-05-10T01:06:31.737Z,0.00
2019-05-10T01:06:36.405Z,0.00
2019-05-10T01:08:06.298Z,0.00
2019-05-10T01:08:12.343Z,0.00
2019-05-10T01:08:17.146Z,0.00
2019-05-10T01:08:22.790Z,0.00
2019-05-10T01:08:29.962Z,0.00
2019-05-10T01:08:33.699Z,0.00
2019-05-10T01:08:40.074Z,0.00
2019-05-10T01:08:43.872Z,0.00
2019-05-10T01:08:49.071Z,0.00
2019-05-10T01:08:57.988Z,0.00
2019-05-10T01:09:01.677Z,0.00
2019-05-10T01:09:10.590Z,0.00
2019-05-10T01:09:23.228Z,0.00
2019-05-10T01:10:12.859Z,0.00
2019-05-10T01:10:21.787Z,0.00
2019-05-10T01:10:25.478Z,0.00
2019-05-10T01:11:47.827Z,0.00
2019-05-10T01:12:17.751Z,0.00
2019-05-10T01:12:24.664Z,0.00
2019-05-10T01:12:28.469Z,0.00
2019-05-10T01:13:07.515Z,0.00
2019-05-10T01:13:14.517Z,0.00
2019-05-10T01:13:19.743Z,0.00
2019-05-10T01:13:23.565Z,0.00
2019-05-10T01:14:11.248Z,0.00
2019-05-10T01:14:20.161Z,0.00
2019-05-10T01:14:23.863Z,0.00
2019-05-10T01:14:27.704Z,0.00
2019-05-10T01:14:31.406Z,0.00
2019-05-10T01:14:36.640Z,0.00
2019-05-10T01:14:41.040Z,0.00
2019-05-10T01:14:44.834Z,0.00
2019-05-10T01:14:53.746Z,0.00
2019-05-10T01:14:57.513Z,0.00
2019-05-10T01:15:06.431Z,0.00
2019-05-10T01:15:15.350Z,0.00
2019-05-10T01:15:22.862Z,0.00
2019-05-10T01:16:09.160Z,0.00
2019-05-10T01:16:14.802Z,0.00
2019-05-10T01:16:20.070Z,0.00
2019-05-10T01:16:23.779Z,0.00
2019-05-10T01:17:36.379Z,0.00
2019-05-10T01:17:40.226Z,0.00
2019-05-10T01:17:49.171Z,0.00
2019-05-10T01:17:57.760Z,0.00
2019-05-10T01:18:02.168Z,0.00
2019-05-10T01:18:05.996Z,0.00
2019-05-10T01:18:27.899Z,0.00
2019-05-10T01:19:07.719Z,0.00
2019-05-10T01:19:13.832Z,0.00
2019-05-10T01:19:17.664Z,0.00
2019-05-10T01:19:43.524Z,0.00
2019-05-10T01:19:52.441Z,0.00
2019-05-10T01:20:01.050Z,0.00
2019-05-10T01:20:05.522Z,0.00
2019-05-10T01:20:13.760Z,0.00
2019-05-10T01:20:22.676Z,0.00
2019-05-10T01:20:31.591Z,0.00
2019-05-10T01:21:50.826Z,0.00
2019-05-10T01:21:56.886Z,0.00
2019-05-10T01:22:00.770Z,0.00
2019-05-10T01:22:04.609Z,0.00
2019-05-10T01:22:13.216Z,0.00
2019-05-10T01:22:22.151Z,0.00
2019-05-10T01:22:33.184Z,0.00
2019-05-10T01:22:42.115Z,0.00
2019-05-10T01:22:51.051Z,0.00
2019-05-10T01:22:54.773Z,0.00
2019-05-10T01:23:04.622Z,0.00
2019-05-10T01:23:10.777Z,0.00
2019-05-10T01:23:16.040Z,0.00
2019-05-10T01:23:24.942Z,0.00
2019-05-10T01:23:28.698Z,0.00
2019-05-10T01:23:33.128Z,0.00
2019-05-10T01:23:44.406Z,0.00
2019-05-10T01:23:51.320Z,0.00
2019-05-10T01:24:10.046Z,0.00
2019-05-10T01:24:15.222Z,0.00
2019-05-10T01:24:25.811Z,0.00
2019-05-10T01:24:34.365Z,0.00
2019-05-10T01:25:43.990Z,0.00
2019-05-10T01:25:47.729Z,0.00
2019-05-10T01:25:51.571Z,0.00
2019-05-10T01:25:55.497Z,0.00
2019-05-10T01:26:30.649Z,0.00
2019-05-10T01:26:34.403Z,0.00
2019-05-10T01:27:35.802Z,0.00
2019-05-10T01:27:39.535Z,0.00
2019-05-10T01:28:25.916Z,0.00
2019-05-10T01:29:43.676Z,0.00
2019-05-10T01:29:54.635Z,0.00
2019-05-10T01:30:00.831Z,0.00
2019-05-10T01:30:05.994Z,0.00
2019-05-10T01:30:09.634Z,0.00
2019-05-10T01:30:18.546Z,0.00
2019-05-10T01:30:27.258Z,0.00
2019-05-10T01:31:30.005Z,0.00
2019-05-10T01:31:33.734Z,0.00
2019-05-10T01:31:55.453Z,0.00
2019-05-10T01:32:02.496Z,0.00
2019-05-10T01:33:07.133Z,0.00
2019-05-10T01:33:12.285Z,0.00
2019-05-10T01:33:15.964Z,0.00
2019-05-10T01:33:19.911Z,0.00
2019-05-10T01:34:19.390Z,0.00
2019-05-10T01:34:25.702Z,0.00
2019-05-10T01:34:30.862Z,0.00
2019-05-10T01:34:39.743Z,0.00
2019-05-10T01:34:43.530Z,0.00
2019-05-10T01:34:47.247Z,0.00
2019-05-10T01:34:51.743Z,0.00
2019-05-10T01:34:55.519Z,0.00
2019-05-10T01:35:04.429Z,0.00
2019-05-10T01:35:13.345Z,0.00
2019-05-10T01:35:17.034Z,0.00
2019-05-10T01:35:28.052Z,0.00
2019-05-10T01:35:34.549Z,0.00
2019-05-10T01:35:43.549Z,0.00
2019-05-10T01:35:51.033Z,0.00
2019-05-10T01:36:03.391Z,0.00
2019-05-10T01:36:12.839Z,0.00
2019-05-10T01:36:25.543Z,0.00
2019-05-10T01:37:29.566Z,0.00
2019-05-10T01:38:21.127Z,0.00
2019-05-10T01:38:25.088Z,0.00
2019-05-10T01:38:34.015Z,0.00
2019-05-10T01:38:39.391Z,0.00
2019-05-10T01:38:46.122Z,0.00
2019-05-10T01:38:50.662Z,0.00
2019-05-10T01:40:14.974Z,0.00
2019-05-10T01:40:20.900Z,0.00
2019-05-10T01:40:44.246Z,0.00
2019-05-10T01:40:47.959Z,0.00
2019-05-10T01:40:55.060Z,0.00
2019-05-10T01:41:03.971Z,0.00
2019-05-10T01:41:07.768Z,0.00
2019-05-10T01:41:11.681Z,0.00
2019-05-10T01:42:39.989Z,0.00
2019-05-10T01:42:47.054Z,0.00
2019-05-10T01:42:52.296Z,0.00
2019-05-10T01:43:01.206Z,0.00
2019-05-10T01:43:04.973Z,0.00
2019-05-10T01:43:18.621Z,0.00
2019-05-10T01:43:22.471Z,0.00
2019-05-10T01:43:26.309Z,0.00
2019-05-10T01:43:35.224Z,0.00
2019-05-10T01:43:44.177Z,0.00
2019-05-10T01:43:47.952Z,0.00
2019-05-10T01:44:45.998Z,0.00
2019-05-10T01:45:40.495Z,0.00
2019-05-10T01:45:45.654Z,0.00
2019-05-10T01:45:50.882Z,0.00
2019-05-10T01:45:59.494Z,0.00
2019-05-10T01:46:08.430Z,0.00
2019-05-10T01:47:26.182Z,0.00
2019-05-10T01:47:35.199Z,0.00
2019-05-10T01:47:41.904Z,0.00
2019-05-10T01:47:45.767Z,0.00
2019-05-10T01:47:54.648Z,0.00
2019-05-10T01:47:58.514Z,0.00
2019-05-10T01:48:57.980Z,0.00
2019-05-10T01:49:01.726Z,0.00
2019-05-10T01:49:08.624Z,0.00
2019-05-10T01:49:13.326Z,0.00
2019-05-10T01:49:20.404Z,0.00
2019-05-10T01:49:25.632Z,0.00
2019-05-10T01:49:29.330Z,0.00
2019-05-10T01:50:51.386Z,0.00
2019-05-10T01:50:56.702Z,0.00
2019-05-10T01:51:13.537Z,0.00
2019-05-10T01:51:22.446Z,0.00
2019-05-10T01:51:29.616Z,0.00
2019-05-10T01:51:38.526Z,0.00
2019-05-10T01:51:44.626Z,0.00
2019-05-10T01:51:48.482Z,0.00
2019-05-10T01:51:52.195Z,0.00
2019-05-10T01:52:35.200Z,0.00
2019-05-10T01:53:42.808Z,0.00
2019-05-10T01:53:51.766Z,0.00
2019-05-10T01:54:00.671Z,0.00
2019-05-10T01:54:07.308Z,0.00
2019-05-10T01:54:11.059Z,0.00
2019-05-10T01:54:24.529Z,0.00
2019-05-10T01:54:28.259Z,0.00
2019-05-10T01:54:51.661Z,0.00
2019-05-10T01:54:55.408Z,0.00
2019-05-10T01:54:59.190Z,0.00
2019-05-10T01:55:14.658Z,0.00
2019-05-10T01:55:18.494Z,0.00
2019-05-10T01:55:22.265Z,0.00
2019-05-10T01:55:26.257Z,0.00
2019-05-10T01:55:30.044Z,0.00
2019-05-10T01:55:51.539Z,0.00
2019-05-10T01:55:52.154Z,0.00
2019-05-10T01:55:59.438Z,0.00
2019-05-10T01:56:08.430Z,0.00
2019-05-10T01:56:12.182Z,0.00
2019-05-10T01:57:21.422Z,0.00
2019-05-10T01:57:25.143Z,0.00
2019-05-10T01:57:28.849Z,0.00
2019-05-10T01:57:32.821Z,0.00
2019-05-10T01:57:39.184Z,0.00
2019-05-10T01:57:42.838Z,0.00
2019-05-10T01:57:48.824Z,0.00
2019-05-10T01:57:52.620Z,0.00
2019-05-10T01:57:56.341Z,0.00
2019-05-10T01:58:18.371Z,0.00
2019-05-10T01:58:22.113Z,0.00
2019-05-10T01:58:26.012Z,0.00
2019-05-10T01:58:38.443Z,0.00
2019-05-10T01:58:43.626Z,0.00
2019-05-10T01:58:55.615Z,0.00
2019-05-10T01:59:12.470Z,0.00
2019-05-10T01:59:19.511Z,0.00
2019-05-10T01:59:26.557Z,0.00
2019-05-10T01:59:35.484Z,0.00
2019-05-10T01:59:42.856Z,0.00
2019-05-10T02:00:45.099Z,0.00
2019-05-10T02:00:54.028Z,0.00
2019-05-10T02:01:03.189Z,0.00
2019-05-10T02:01:06.851Z,0.00
2019-05-10T02:01:12.400Z,0.00
2019-05-10T02:01:16.114Z,0.00
2019-05-10T02:02:25.141Z,0.00
2019-05-10T02:02:48.296Z,0.00
2019-05-10T02:02:52.762Z,0.00
2019-05-10T02:02:59.280Z,0.00
2019-05-10T02:03:06.499Z,0.00
2019-05-10T02:04:17.675Z,0.00
2019-05-10T02:05:23.744Z,0.00
2019-05-10T02:05:32.656Z,0.00
2019-05-10T02:05:41.564Z,0.00
2019-05-10T02:05:45.342Z,0.00
2019-05-10T02:05:49.799Z,0.00
2019-05-10T02:05:53.631Z,0.00
2019-05-10T02:06:23.488Z,0.00
2019-05-10T02:06:34.513Z,0.00
2019-05-10T02:06:39.767Z,0.00
2019-05-10T02:06:48.690Z,0.00
2019-05-10T02:06:54.768Z,0.00
2019-05-10T02:07:06.963Z,0.00
2019-05-10T02:07:10.652Z,0.00
2019-05-10T02:07:19.583Z,0.00
2019-05-10T02:07:24.742Z,0.00
2019-05-10T02:07:29.899Z,0.00
2019-05-10T02:07:38.815Z,0.00
2019-05-10T02:07:47.726Z,0.00
2019-05-10T02:07:56.647Z,0.00
2019-05-10T02:08:00.404Z,0.00
2019-05-10T02:08:18.988Z,0.00
2019-05-10T02:08:22.805Z,0.00
2019-05-10T02:08:27.389Z,0.00
2019-05-10T02:08:34.358Z,0.00
2019-05-10T02:08:38.171Z,0.00
2019-05-10T02:08:48.029Z,0.00
2019-05-10T02:08:55.636Z,0.00
2019-05-10T02:09:11.123Z,0.00
2019-05-10T02:09:20.032Z,0.00
2019-05-10T02:09:27.574Z,0.00
2019-05-10T02:09:39.954Z,0.00
2019-05-10T02:09:45.218Z,0.00
2019-05-10T02:10:28.454Z,0.00
2019-05-10T02:11:21.575Z,0.00
2019-05-10T02:11:28.278Z,0.00
2019-05-10T02:11:46.722Z,0.00
2019-05-10T02:11:55.743Z,0.00
2019-05-10T02:12:04.667Z,0.00
2019-05-10T02:12:08.344Z,0.00
2019-05-10T02:12:17.271Z,0.00
2019-05-10T02:12:21.139Z,0.00
2019-05-10T02:12:30.058Z,0.00
2019-05-10T02:12:38.978Z,0.00
2019-05-10T02:12:45.907Z,0.00
2019-05-10T02:12:56.256Z,0.00
2019-05-10T02:13:03.361Z,0.00
2019-05-10T02:13:07.034Z,0.00
2019-05-10T02:13:10.715Z,0.00
2019-05-10T02:13:19.636Z,0.00
2019-05-10T02:13:30.566Z,0.00
2019-05-10T02:13:34.226Z,0.00
2019-05-10T02:14:13.090Z,0.00
2019-05-10T02:14:16.838Z,0.00
2019-05-10T02:14:25.778Z,0.00
2019-05-10T02:14:30.924Z,0.00
2019-05-10T02:14:39.825Z,0.00
2019-05-10T02:14:43.642Z,0.00
2019-05-10T02:15:56.173Z,0.00
2019-05-10T02:16:05.189Z,0.00
2019-05-10T02:16:08.904Z,0.00
2019-05-10T02:16:15.596Z,0.00
2019-05-10T02:16:24.527Z,0.00
2019-05-10T02:17:42.260Z,0.00
2019-05-10T02:17:51.176Z,0.00
2019-05-10T02:17:55.009Z,0.00
2019-05-10T02:18:03.941Z,0.00
2019-05-10T02:19:16.605Z,0.00
2019-05-10T02:19:45.414Z,0.00
2019-05-10T02:19:56.556Z,0.00
2019-05-10T02:20:00.252Z,0.00
2019-05-10T02:20:04.064Z,0.00
2019-05-10T02:21:18.519Z,0.00
2019-05-10T02:21:26.976Z,0.00
2019-05-10T02:21:30.692Z,0.00
2019-05-10T02:22:20.313Z,0.00
2019-05-10T02:22:25.620Z,0.00
2019-05-10T02:22:31.636Z,0.00
2019-05-10T02:22:40.088Z,0.00
2019-05-10T02:22:43.831Z,0.00
2019-05-10T02:22:50.219Z,0.00
2019-05-10T02:22:54.954Z,0.00
2019-05-10T02:23:03.862Z,0.00
2019-05-10T02:23:13.843Z,0.00
2019-05-10T02:23:17.572Z,0.00
2019-05-10T02:23:26.487Z,0.00
2019-05-10T02:23:34.774Z,0.00
2019-05-10T02:23:43.684Z,0.00
2019-05-10T02:23:50.541Z,0.00
2019-05-10T02:23:54.449Z,0.00
2019-05-10T02:24:19.561Z,0.00
2019-05-10T02:24:26.543Z,0.00
2019-05-10T02:24:33.778Z,0.00
2019-05-10T02:24:43.766Z,0.00
2019-05-10T02:24:54.238Z,0.00
2019-05-10T02:24:57.961Z,0.00
2019-05-10T02:25:08.189Z,0.00
2019-05-10T02:26:20.576Z,0.00
2019-05-10T02:26:24.954Z,0.00
2019-05-10T02:26:30.178Z,0.00
2019-05-10T02:26:37.854Z,0.00
2019-05-10T02:26:42.367Z,0.00
2019-05-10T02:26:46.120Z,0.00
2019-05-10T02:26:49.836Z,0.00
2019-05-10T02:26:58.748Z,0.00
2019-05-10T02:27:05.039Z,0.00
2019-05-10T02:27:31.758Z,0.00
2019-05-10T02:28:36.097Z,0.00
2019-05-10T02:28:45.111Z,0.00
2019-05-10T02:28:48.794Z,0.00
2019-05-10T02:28:52.745Z,0.00
2019-05-10T02:28:56.570Z,0.00
2019-05-10T02:29:30.034Z,0.00
2019-05-10T02:30:05.998Z,0.00
2019-05-10T02:30:09.722Z,0.00
2019-05-10T02:30:15.915Z,0.00
2019-05-10T02:30:26.290Z,0.00
2019-05-10T02:30:33.405Z,0.00
2019-05-10T02:30:39.807Z,0.00
2019-05-10T02:30:48.445Z,0.00
2019-05-10T02:30:52.231Z,0.00
2019-05-10T02:31:01.141Z,0.00
2019-05-10T02:31:10.053Z,0.00
2019-05-10T02:31:21.278Z,0.00
2019-05-10T02:31:26.021Z,0.00
2019-05-10T02:31:34.935Z,0.00
2019-05-10T02:31:43.843Z,0.00
2019-05-10T02:31:50.903Z,0.00
2019-05-10T02:31:58.079Z,0.00
2019-05-10T02:32:01.775Z,0.00
2019-05-10T02:32:12.207Z,0.00
2019-05-10T02:32:20.824Z,0.00
2019-05-10T02:32:31.825Z,0.00
2019-05-10T02:32:40.709Z,0.00
2019-05-10T02:33:15.850Z,0.00
2019-05-10T02:33:24.760Z,0.00
2019-05-10T02:33:28.527Z,0.00
2019-05-10T02:33:44.895Z,0.00
2019-05-10T02:33:48.612Z,0.00
2019-05-10T02:33:59.015Z,0.00
2019-05-10T02:34:04.094Z,0.00
2019-05-10T02:34:11.039Z,0.00
2019-05-10T02:34:29.327Z,0.00
2019-05-10T02:34:32.998Z,0.00
2019-05-10T02:34:41.908Z,0.00
2019-05-10T02:34:47.936Z,0.00
2019-05-10T02:34:56.843Z,0.00
2019-05-10T02:35:02.084Z,0.00
2019-05-10T02:35:11.003Z,0.00
2019-05-10T02:35:30.202Z,0.00
2019-05-10T02:35:39.226Z,0.00
2019-05-10T02:35:46.312Z,0.00
2019-05-10T02:35:50.044Z,0.00
2019-05-10T02:36:31.729Z,0.00
2019-05-10T02:36:55.024Z,0.00
2019-05-10T02:36:58.775Z,0.00
2019-05-10T02:37:04.051Z,0.00
2019-05-10T02:37:07.751Z,0.00
2019-05-10T02:37:14.712Z,0.00
2019-05-10T02:37:20.797Z,0.00
2019-05-10T02:37:24.854Z,0.00
2019-05-10T02:37:35.118Z,0.00
2019-05-10T02:37:47.314Z,0.00
2019-05-10T02:37:56.224Z,0.00
2019-05-10T02:37:59.997Z,0.00
2019-05-10T02:38:48.544Z,0.00
2019-05-10T02:38:57.457Z,0.00
2019-05-10T02:39:04.365Z,0.00
2019-05-10T02:39:08.097Z,0.00
2019-05-10T02:39:21.860Z,0.00
2019-05-10T02:39:28.058Z,0.00
2019-05-10T02:39:56.641Z,0.00
2019-05-10T02:40:06.600Z,0.00
2019-05-10T02:40:10.475Z,0.00
2019-05-10T02:40:14.339Z,0.00
2019-05-10T02:41:22.244Z,0.00
2019-05-10T02:41:37.716Z,0.00
2019-05-10T02:41:41.485Z,0.00
2019-05-10T02:42:27.923Z,0.00
2019-05-10T02:42:36.824Z,0.00
2019-05-10T02:42:40.625Z,0.00
2019-05-10T02:42:49.553Z,0.00
2019-05-10T02:42:58.517Z,0.00
2019-05-10T02:43:07.434Z,0.00
2019-05-10T02:43:16.046Z,0.00
2019-05-10T02:43:21.307Z,0.00
2019-05-10T02:43:25.661Z,0.00
2019-05-10T02:43:32.626Z,0.00
2019-05-10T02:43:37.057Z,0.00
2019-05-10T02:43:40.789Z,0.00
2019-05-10T02:44:00.468Z,0.00
2019-05-10T02:44:41.083Z,0.00
2019-05-10T02:44:44.786Z,0.00
2019-05-10T02:45:09.676Z,0.00
2019-05-10T02:45:25.144Z,0.00
2019-05-10T02:45:28.958Z,0.00
2019-05-10T02:45:35.424Z,0.00
2019-05-10T02:45:44.337Z,0.00
2019-05-10T02:45:51.246Z,0.00
2019-05-10T02:45:54.903Z,0.00
2019-05-10T02:46:00.898Z,0.00
2019-05-10T02:46:04.892Z,0.00
2019-05-10T02:46:10.048Z,0.00
2019-05-10T02:46:15.967Z,0.00
2019-05-10T02:46:21.415Z,0.00
2019-05-10T02:46:26.635Z,0.00
2019-05-10T02:46:36.449Z,0.00
2019-05-10T02:46:45.363Z,0.00
2019-05-10T02:46:57.958Z,0.00
2019-05-10T02:47:06.882Z,0.00
2019-05-10T02:47:18.864Z,0.00
2019-05-10T02:47:26.938Z,0.00
2019-05-10T02:47:42.831Z,0.00
2019-05-10T02:47:46.776Z,0.00
2019-05-10T02:48:56.146Z,0.00
2019-05-10T02:48:59.932Z,0.00
2019-05-10T02:49:08.866Z,0.00
2019-05-10T02:49:17.781Z,0.00
2019-05-10T02:50:22.446Z,0.00
2019-05-10T02:50:34.636Z,0.00
2019-05-10T02:50:43.572Z,0.00
2019-05-10T02:50:47.343Z,0.00
2019-05-10T02:50:53.429Z,0.00